Rognaldsvag, Norway

11:25 PM CEST on May 22, 2017 (GMT +0200)
Floro | | Change Station

Elev 30 ft 61.58 °N, 5.03 °E | Updated 35 minutes ago

Clear
Clear
52 °F
Feels Like 52 °F
N
1
Wind Variable Wind from Variable

Today
High -- | Low -- °F
--% Chance of Precip.
Yesterday
High -- | Low -- °F
Precip. -- in
Pressure 30.04 in
Visibility 6.2 miles
Clouds Few 3000 ft
Dew Point 43 °F
Humidity 71%
Rainfall 0.00 in
Snow Depth Not available.
4:33 AM 10:43 PM
Waning Crescent, 12% visible
METAR ENFL 222050Z VRB01KT 9999 FEW030 11/06 Q1017
Pressure 30.04 in
Visibility 6.2 miles
Clouds Few 3000 ft
Dew Point 43 °F
Humidity 71%
Rainfall 0.00 in
Snow Depth Not available.
4:33 AM 10:43 PM
Waning Crescent, 12% visible
METAR ENFL 222050Z VRB01KT 9999 FEW030 11/06 Q1017

Get Severe Weather Alerts

Thanks for signing up!

Be on the lookout for a verification email in your inbox.

You'll start receiving the daily forecast at 6 AM.

×

10-Day Weather Forecast

×

Almanac

Astronomy

May. 22, 2017 Rise Set
Actual Time
Civil Twilight
Nautical Twilight
Astronomical Twilight
Moon
Length of Visible Light
Length of Day
Tomorrow will be .
, % of the Moon is Illuminated

Today's Extremes

Country Highs Country Lows

Community

WunderPhotos

Category 6

Welcome to Category 6. This is the collective home for Weather Underground's featured writeups by Dr. Jeff Masters (right), Bob Henson (left), Chris Burt, and other regular contributors.

Nearby

Air Quality

  Air Quality AQ Index Pollutant
Not available.

Snow Depth

Station Depth Elevation

Earthquake Activity

City Distance Mag. Time & Date
Minimum magnitude displayed is 2.5.

Coastal Water Temperatures

Place Temperature

Stations

Nearby Weather Stations

Station Location Temp. Windchill Dew Point Humidity Wind Precip. Elev Updated Type